Time;durP1;ratioP1;P1;durP2;ratioP2;P2;SDS_P1;SDS_P2;PMS_P1;PMS_P2;Temp;Humidity;BMP_temperature;BMP_pressure;BME280_temperature;BME280_humidity;BME280_pressure;Samples;Min_cycle;Max_cycle;Signal;HPM_P1;HPM_P2
2024/03/13 00:02:23;;;;;;;;;;;;;;;;;;5021504;28;20339;-54
2024/03/13 00:04:49;;;;;;;;;;;;;;;;;;5027284;28;19948;-53
2024/03/13 00:07:15;;;;;;;;;;;;;;;;;;5014509;28;19948;-55
2024/03/13 00:09:45;;;;;;;;;;;;;;;;;;5010296;28;19953;-53
2024/03/13 00:12:11;;;;;;;;;;;;;;;;;;5009779;28;20003;-53
2024/03/13 00:14:37;;;;;;;;;;;;;;;;;;5017774;28;20563;-52
2024/03/13 00:17:04;;;;;;;;;;;;;;;;;;5013810;28;19953;-52
2024/03/13 00:19:29;;;;;;;;;;;;;;;;;;5020162;28;20020;-53
2024/03/13 00:21:55;;;;;;;;;;;;;;;;;;5018436;28;20398;-52
2024/03/13 00:24:24;;;;;;;;;;;;;;;;;;5017984;28;20452;-53
2024/03/13 00:26:51;;;;;;;;;;;;;;;;;;5013120;28;19914;-54
2024/03/13 00:29:17;;;;;;;;;;;;;;;;;;5026025;28;20361;-52
2024/03/13 00:31:46;;;;;;;;;;;;;;;;;;5019562;28;19920;-54
2024/03/13 00:34:12;;;;;;;;;;;;;;;;;;5014413;28;20345;-54
2024/03/13 00:36:38;;;;;;;;;;;;;;;;;;5016588;28;19948;-53
2024/03/13 00:39:05;;;;;;;;;;;;;;;;;;5011242;28;20015;-54
2024/03/13 00:41:30;;;;;;;;;;;;;;;;;;5021258;28;19913;-53
2024/03/13 00:43:56;;;;;;;;;;;;;;;;;;5008939;28;19941;-53
2024/03/13 00:46:23;;;;;;;;;;;;;;;;;;5021813;28;19956;-58
2024/03/13 00:48:49;;;;;;;;;;;;;;;;;;5012939;28;20658;-59
2024/03/13 00:51:15;;;;;;;;;;;;;;;;;;5010026;28;19913;-58
2024/03/13 00:53:41;;;;;;;;;;;;;;;;;;5010016;28;19927;-56
2024/03/13 00:56:06;;;;;;;;;;;;;;;;;;5010829;28;20000;-58
2024/03/13 00:58:33;;;;;;;;;;;;;;;;;;5009501;28;20306;-58
2024/03/13 01:00:59;;;;;;;;;;;;;;;;;;5018136;28;20350;-57
2024/03/13 01:03:25;;;;;;;;;;;;;;;;;;5028573;28;19944;-58
2024/03/13 01:05:55;;;;;;;;;;;;;;;;;;5021668;28;20368;-58
2024/03/13 01:08:21;;;;;;;;;;;;;;;;;;5015618;28;20004;-58
2024/03/13 01:10:50;;;;;;;;;;;;;;;;;;5012179;28;20004;-58
2024/03/13 01:13:18;;;;;;;;;;;;;;;;;;5018881;28;19913;-58
2024/03/13 01:15:44;;;;;;;;;;;;;;;;;;5027004;28;19917;-58
2024/03/13 01:18:10;;;;;;;;;;;;;;;;;;5027379;28;19952;-58
2024/03/13 01:20:36;;;;;;;;;;;;;;;;;;5022223;28;20012;-58
2024/03/13 01:23:02;;;;;;;;;;;;;;;;;;5022806;28;20004;-59
2024/03/13 01:25:28;;;;;;;;;;;;;;;;;;5015184;28;19969;-58
2024/03/13 01:27:54;;;;;;;;;;;;;;;;;;5017006;28;19963;-59
2024/03/13 01:30:21;;;;;;;;;;;;;;;;;;5020809;28;19976;-58
2024/03/13 01:32:47;;;;;;;;;;;;;;;;;;5014643;28;19913;-57
2024/03/13 01:35:15;;;;;;;;;;;;;;;;;;5029343;28;19924;-58
2024/03/13 01:37:57;;;;;;;;;;;;;;;;;;5020940;28;19928;-58
2024/03/13 01:40:28;;;;;;;;;;;;;;;;;;5021466;28;20185;-58
2024/03/13 01:56:47;;;;;;;;;;;;;;;;;;5020273;28;20412;-54
2024/03/13 01:59:20;;;;;;;;;;;;;;;;;;5023615;28;19917;-54
2024/03/13 02:04:31;;;;;;;;;;;;;;;;;;5020559;28;19925;-55
2024/03/13 02:06:56;;;;;;;;;;;;;;;;;;5020719;28;19916;-53
2024/03/13 02:09:23;;;;;;;;;;;;;;;;;;5019842;28;19931;-52
2024/03/13 02:11:49;;;;;;;;;;;;;;;;;;5017723;28;19909;-53
2024/03/13 02:14:15;;;;;;;;;;;;;;;;;;5012410;28;19929;-53
2024/03/13 02:16:41;;;;;;;;;;;;;;;;;;5018386;28;20493;-55
2024/03/13 02:19:07;;;;;;;;;;;;;;;;;;5020728;28;19967;-54
2024/03/13 02:21:33;;;;;;;;;;;;;;;;;;5027852;28;20331;-54
2024/03/13 02:23:59;;;;;;;;;;;;;;;;;;5027066;28;19952;-54
2024/03/13 02:26:25;;;;;;;;;;;;;;;;;;5026005;28;20019;-54
2024/03/13 02:28:52;;;;;;;;;;;;;;;;;;5026908;28;20384;-54
2024/03/13 02:31:18;;;;;;;;;;;;;;;;;;5013469;28;20012;-54
2024/03/13 02:33:44;;;;;;;;;;;;;;;;;;5020049;28;20011;-53
2024/03/13 02:36:09;;;;;;;;;;;;;;;;;;5024202;28;19944;-53
2024/03/13 02:38:35;;;;;;;;;;;;;;;;;;5025240;28;20014;-54
2024/03/13 02:41:02;;;;;;;;;;;;;;;;;;5017347;28;20258;-55
2024/03/13 02:43:28;;;;;;;;;;;;;;;;;;5011908;28;19917;-54
2024/03/13 02:45:54;;;;;;;;;;;;;;;;;;5011812;28;19917;-53
2024/03/13 02:48:20;;;;;;;;;;;;;;;;;;5021148;28;19971;-53
2024/03/13 02:50:46;;;;;;;;;;;;;;;;;;5020521;28;19952;-53
2024/03/13 02:53:12;;;;;;;;;;;;;;;;;;5013586;28;20512;-54
2024/03/13 02:55:38;;;;;;;;;;;;;;;;;;5021050;28;19909;-53
2024/03/13 02:58:04;;;;;;;;;;;;;;;;;;5017214;28;20377;-53
2024/03/13 03:00:30;;;;;;;;;;;;;;;;;;5021338;28;20037;-54
2024/03/13 03:02:56;;;;;;;;;;;;;;;;;;5025456;28;20075;-53
2024/03/13 03:05:22;;;;;;;;;;;;;;;;;;5020120;28;19959;-53
2024/03/13 03:07:48;;;;;;;;;;;;;;;;;;5023845;28;19952;-52
2024/03/13 03:10:14;;;;;;;;;;;;;;;;;;5015460;28;20419;-55
2024/03/13 03:12:43;;;;;;;;;;;;;;;;;;5012543;28;19945;-53
2024/03/13 03:15:09;;;;;;;;;;;;;;;;;;5019308;28;19967;-53
2024/03/13 03:17:35;;;;;;;;;;;;;;;;;;5014593;28;19989;-54
2024/03/13 03:20:01;;;;;;;;;;;;;;;;;;5016319;28;19908;-54
2024/03/13 03:22:27;;;;;;;;;;;;;;;;;;5015479;28;19970;-54
2024/03/13 03:24:55;;;;;;;;;;;;;;;;;;5023345;28;20036;-55
2024/03/13 03:27:21;;;;;;;;;;;;;;;;;;5018454;28;19905;-52
2024/03/13 03:29:47;;;;;;;;;;;;;;;;;;5023634;28;19920;-56
2024/03/13 03:32:14;;;;;;;;;;;;;;;;;;5020341;28;19937;-53
2024/03/13 03:34:40;;;;;;;;;;;;;;;;;;5014949;28;20338;-53
2024/03/13 03:37:07;;;;;;;;;;;;;;;;;;5019788;28;20044;-52
2024/03/13 03:39:33;;;;;;;;;;;;;;;;;;5026323;28;20249;-53
2024/03/13 03:41:59;;;;;;;;;;;;;;;;;;5012934;28;19917;-54
2024/03/13 03:44:27;;;;;;;;;;;;;;;;;;5024094;28;19951;-53
2024/03/13 03:46:53;;;;;;;;;;;;;;;;;;5024570;28;20308;-54
2024/03/13 03:49:22;;;;;;;;;;;;;;;;;;5027605;28;19996;-53
2024/03/13 03:51:48;;;;;;;;;;;;;;;;;;5011140;28;19920;-53
2024/03/13 03:54:14;;;;;;;;;;;;;;;;;;5026134;28;20019;-52
2024/03/13 03:56:40;;;;;;;;;;;;;;;;;;5013780;28;20084;-53
2024/03/13 03:59:06;;;;;;;;;;;;;;;;;;5021417;28;20002;-54
2024/03/13 04:01:32;;;;;;;;;;;;;;;;;;5013534;28;20009;-54
2024/03/13 04:03:59;;;;;;;;;;;;;;;;;;5025841;28;20041;-52
2024/03/13 04:06:25;;;;;;;;;;;;;;;;;;5014862;28;20005;-52
2024/03/13 04:08:51;;;;;;;;;;;;;;;;;;5022545;28;20450;-53
2024/03/13 04:11:19;;;;;;;;;;;;;;;;;;5017391;28;20394;-53
2024/03/13 04:13:46;;;;;;;;;;;;;;;;;;5017193;28;20369;-52
2024/03/13 04:16:13;;;;;;;;;;;;;;;;;;5017856;28;20648;-53
2024/03/13 04:18:39;;;;;;;;;;;;;;;;;;5020431;28;19912;-53
2024/03/13 04:21:05;;;;;;;;;;;;;;;;;;5021213;28;19964;-53
2024/03/13 04:23:31;;;;;;;;;;;;;;;;;;5011963;28;20044;-54
2024/03/13 04:25:57;;;;;;;;;;;;;;;;;;5009708;28;20248;-52
2024/03/13 04:28:23;;;;;;;;;;;;;;;;;;5010836;28;19956;-54
2024/03/13 04:30:48;;;;;;;;;;;;;;;;;;5015590;28;20000;-53
2024/03/13 04:33:17;;;;;;;;;;;;;;;;;;5016179;28;20358;-54
2024/03/13 04:35:46;;;;;;;;;;;;;;;;;;5013310;28;20004;-53
2024/03/13 04:38:15;;;;;;;;;;;;;;;;;;5030388;28;20357;-51
2024/03/13 04:40:41;;;;;;;;;;;;;;;;;;5025933;28;19971;-53
2024/03/13 04:43:07;;;;;;;;;;;;;;;;;;5020546;28;19956;-53
2024/03/13 04:45:33;;;;;;;;;;;;;;;;;;5021287;28;20341;-54
2024/03/13 04:47:59;;;;;;;;;;;;;;;;;;5026596;28;19909;-53
2024/03/13 04:50:25;;;;;;;;;;;;;;;;;;5030646;28;19909;-53
2024/03/13 04:52:51;;;;;;;;;;;;;;;;;;5021899;28;20301;-53
2024/03/13 04:55:17;;;;;;;;;;;;;;;;;;5015677;28;19982;-54
2024/03/13 04:57:43;;;;;;;;;;;;;;;;;;5023073;28;20297;-53
2024/03/13 05:00:09;;;;;;;;;;;;;;;;;;5019975;28;20059;-53
2024/03/13 05:02:35;;;;;;;;;;;;;;;;;;5024058;28;19909;-53
2024/03/13 05:05:01;;;;;;;;;;;;;;;;;;5017176;28;20310;-53
2024/03/13 05:07:27;;;;;;;;;;;;;;;;;;5031301;28;20377;-53
2024/03/13 05:09:53;;;;;;;;;;;;;;;;;;5021329;28;19955;-55
2024/03/13 05:12:19;;;;;;;;;;;;;;;;;;5026604;28;20347;-54
2024/03/13 05:14:45;;;;;;;;;;;;;;;;;;5025563;28;19971;-54
2024/03/13 05:17:15;;;;;;;;;;;;;;;;;;5031408;28;20412;-53
2024/03/13 05:19:41;;;;;;;;;;;;;;;;;;5018322;28;20345;-54
2024/03/13 05:22:08;;;;;;;;;;;;;;;;;;5020179;28;20417;-52
2024/03/13 05:24:34;;;;;;;;;;;;;;;;;;5025061;28;20325;-53
2024/03/13 05:27:00;;;;;;;;;;;;;;;;;;5030396;28;19984;-53
2024/03/13 05:29:27;;;;;;;;;;;;;;;;;;5029306;28;19959;-54
2024/03/13 05:31:52;;;;;;;;;;;;;;;;;;5027614;28;19979;-54
2024/03/13 05:34:18;;;;;;;;;;;;;;;;;;5023670;28;19983;-54
2024/03/13 05:36:44;;;;;;;;;;;;;;;;;;5020424;28;20026;-53
2024/03/13 05:39:12;;;;;;;;;;;;;;;;;;5016325;28;20289;-53
2024/03/13 05:41:38;;;;;;;;;;;;;;;;;;5027167;28;19988;-55
2024/03/13 05:44:04;;;;;;;;;;;;;;;;;;5025040;28;20003;-55
2024/03/13 05:46:30;;;;;;;;;;;;;;;;;;5022445;28;20402;-52
2024/03/13 05:48:56;;;;;;;;;;;;;;;;;;5022474;28;19909;-52
2024/03/13 05:51:23;;;;;;;;;;;;;;;;;;5018064;28;19924;-53
2024/03/13 05:53:49;;;;;;;;;;;;;;;;;;5021643;28;20350;-55
2024/03/13 05:56:15;;;;;;;;;;;;;;;;;;5014273;28;19924;-53
2024/03/13 05:58:44;;;;;;;;;;;;;;;;;;5018319;28;19914;-55
2024/03/13 06:01:10;;;;;;;;;;;;;;;;;;5019695;28;19914;-53
2024/03/13 06:03:36;;;;;;;;;;;;;;;;;;5022002;28;20249;-54
2024/03/13 06:06:02;;;;;;;;;;;;;;;;;;5016402;28;19910;-54
2024/03/13 06:08:30;;;;;;;;;;;;;;;;;;5029965;28;20012;-53
2024/03/13 06:10:56;;;;;;;;;;;;;;;;;;5022064;28;20269;-54
2024/03/13 06:13:22;;;;;;;;;;;;;;;;;;5028384;28;19975;-52
2024/03/13 06:15:48;;;;;;;;;;;;;;;;;;5018587;28;19953;-54
2024/03/13 06:18:14;;;;;;;;;;;;;;;;;;5019438;28;19970;-54
2024/03/13 06:20:40;;;;;;;;;;;;;;;;;;5016560;28;19917;-53
2024/03/13 06:23:06;;;;;;;;;;;;;;;;;;5019753;28;19951;-53
2024/03/13 06:25:39;;;;;;;;;;;;;;;;;;5017982;28;19945;-56
2024/03/13 06:29:56;;;;;;;;;;;;;;;;;;5014432;28;20360;-54
2024/03/13 06:30:51;;;;;;;;;;;;;;;;;;5021942;28;20419;-54
2024/03/13 06:33:17;;;;;;;;;;;;;;;;;;5016632;28;19967;-54
2024/03/13 06:35:43;;;;;;;;;;;;;;;;;;5018506;28;19964;-53
2024/03/13 06:38:09;;;;;;;;;;;;;;;;;;5021240;28;19971;-57
2024/03/13 06:40:37;;;;;;;;;;;;;;;;;;5021719;28;19956;-57
2024/03/13 06:43:03;;;;;;;;;;;;;;;;;;5027655;28;19982;-58
2024/03/13 06:45:29;;;;;;;;;;;;;;;;;;5025133;28;20369;-57
2024/03/13 06:47:57;;;;;;;;;;;;;;;;;;5027586;28;20373;-57
2024/03/13 06:50:23;;;;;;;;;;;;;;;;;;5021611;28;20443;-57
2024/03/13 06:52:49;;;;;;;;;;;;;;;;;;5024410;28;20073;-57
2024/03/13 06:55:15;;;;;;;;;;;;;;;;;;5012126;28;19960;-57
2024/03/13 06:57:41;;;;;;;;;;;;;;;;;;5020464;28;20220;-57
2024/03/13 07:00:07;;;;;;;;;;;;;;;;;;5022791;28;20385;-57
2024/03/13 07:02:33;;;;;;;;;;;;;;;;;;5018415;28;19909;-56
2024/03/13 07:04:59;;;;;;;;;;;;;;;;;;5031239;28;20330;-56
2024/03/13 07:07:25;;;;;;;;;;;;;;;;;;5016293;28;19960;-56
2024/03/13 07:09:51;;;;;;;;;;;;;;;;;;5020521;28;19953;-55
2024/03/13 07:12:16;;;;;;;;;;;;;;;;;;5010958;28;19940;-57
2024/03/13 07:14:42;;;;;;;;;;;;;;;;;;5021336;28;20120;-56
2024/03/13 07:17:08;;;;;;;;;;;;;;;;;;5014570;28;19952;-57
2024/03/13 07:19:35;;;;;;;;;;;;;;;;;;5024857;28;19985;-56
2024/03/13 07:22:01;;;;;;;;;;;;;;;;;;5013931;28;19986;-56
2024/03/13 07:24:27;;;;;;;;;;;;;;;;;;5023072;28;20353;-56
2024/03/13 07:26:53;;;;;;;;;;;;;;;;;;5025013;28;20349;-56
2024/03/13 07:29:19;;;;;;;;;;;;;;;;;;5018854;28;20377;-56
2024/03/13 07:31:45;;;;;;;;;;;;;;;;;;5014013;28;19960;-56
2024/03/13 07:34:11;;;;;;;;;;;;;;;;;;5012803;28;19961;-56
2024/03/13 07:36:37;;;;;;;;;;;;;;;;;;5018838;28;19952;-56
2024/03/13 07:39:04;;;;;;;;;;;;;;;;;;5025888;28;19974;-56
2024/03/13 07:41:30;;;;;;;;;;;;;;;;;;5015511;28;20012;-56
2024/03/13 07:43:56;;;;;;;;;;;;;;;;;;5017364;28;20000;-56
2024/03/13 07:46:22;;;;;;;;;;;;;;;;;;5010821;28;19959;-58
2024/03/13 07:48:48;;;;;;;;;;;;;;;;;;5019611;28;19937;-58
2024/03/13 07:51:14;;;;;;;;;;;;;;;;;;5017199;28;20723;-57
2024/03/13 07:53:40;;;;;;;;;;;;;;;;;;5009978;28;20399;-58
2024/03/13 07:56:07;;;;;;;;;;;;;;;;;;5018121;28;19940;-57
2024/03/13 07:58:32;;;;;;;;;;;;;;;;;;5018869;28;19909;-58
2024/03/13 08:01:01;;;;;;;;;;;;;;;;;;5020830;28;20107;-58
2024/03/13 08:03:27;;;;;;;;;;;;;;;;;;5017332;28;20000;-58
2024/03/13 08:05:55;;;;;;;;;;;;;;;;;;5012362;28;20421;-58
2024/03/13 08:08:21;;;;;;;;;;;;;;;;;;5015163;28;20349;-57
2024/03/13 08:10:47;;;;;;;;;;;;;;;;;;5013448;28;19936;-58
2024/03/13 08:13:13;;;;;;;;;;;;;;;;;;5010982;28;19909;-58
2024/03/13 08:15:39;;;;;;;;;;;;;;;;;;5012952;28;19913;-58
2024/03/13 08:18:09;;;;;;;;;;;;;;;;;;5014935;28;19913;-57
2024/03/13 08:20:35;;;;;;;;;;;;;;;;;;5013420;28;20038;-57
2024/03/13 08:23:03;;;;;;;;;;;;;;;;;;5012993;28;19926;-58
2024/03/13 08:25:29;;;;;;;;;;;;;;;;;;5018048;28;19952;-58
2024/03/13 08:27:56;;;;;;;;;;;;;;;;;;5018170;28;19971;-58
2024/03/13 08:30:23;;;;;;;;;;;;;;;;;;5016211;28;19913;-58
2024/03/13 08:32:49;;;;;;;;;;;;;;;;;;5019830;28;19924;-58
2024/03/13 08:35:15;;;;;;;;;;;;;;;;;;5024802;28;19960;-58
2024/03/13 08:37:44;;;;;;;;;;;;;;;;;;5016441;28;19955;-58
2024/03/13 08:40:11;;;;;;;;;;;;;;;;;;5015430;28;20032;-57
2024/03/13 08:42:37;;;;;;;;;;;;;;;;;;5026716;28;19920;-56
2024/03/13 08:45:03;;;;;;;;;;;;;;;;;;5019513;28;20210;-58
2024/03/13 08:47:29;;;;;;;;;;;;;;;;;;5016395;28;19913;-58
2024/03/13 08:49:56;;;;;;;;;;;;;;;;;;5020685;28;19917;-58
2024/03/13 08:52:22;;;;;;;;;;;;;;;;;;5017216;28;20423;-58
2024/03/13 08:54:48;;;;;;;;;;;;;;;;;;5015837;28;19967;-56
2024/03/13 08:57:14;;;;;;;;;;;;;;;;;;5019670;28;19920;-54
2024/03/13 08:59:40;;;;;;;;;;;;;;;;;;5020432;28;19944;-53
2024/03/13 09:02:06;;;;;;;;;;;;;;;;;;5014969;28;20208;-51
2024/03/13 09:04:33;;;;;;;;;;;;;;;;;;5014832;28;19921;-53
2024/03/13 09:07:00;;;;;;;;;;;;;;;;;;5019710;28;19916;-56
2024/03/13 09:09:26;;;;;;;;;;;;;;;;;;5023313;28;20033;-53
2024/03/13 09:11:52;;;;;;;;;;;;;;;;;;5018316;28;19917;-55
2024/03/13 09:14:19;;;;;;;;;;;;;;;;;;5013285;28;19940;-52
2024/03/13 09:16:47;;;;;;;;;;;;;;;;;;5014491;28;19917;-52
2024/03/13 09:19:14;;;;;;;;;;;;;;;;;;5018063;28;19957;-53
2024/03/13 09:21:42;;;;;;;;;;;;;;;;;;5010776;28;20039;-54
2024/03/13 09:24:10;;;;;;;;;;;;;;;;;;5015121;28;19924;-53
2024/03/13 09:26:36;;;;;;;;;;;;;;;;;;5018259;28;20203;-53
2024/03/13 09:29:01;;;;;;;;;;;;;;;;;;5023061;28;19948;-54
2024/03/13 09:31:27;;;;;;;;;;;;;;;;;;5018355;28;20462;-55
2024/03/13 09:33:53;;;;;;;;;;;;;;;;;;5022661;28;20816;-55
2024/03/13 09:36:25;;;;;;;;;;;;;;;;;;5021106;28;19948;-54
2024/03/13 09:38:51;;;;;;;;;;;;;;;;;;5020355;28;19909;-56
2024/03/13 09:41:17;;;;;;;;;;;;;;;;;;5017993;28;20547;-54
2024/03/13 09:43:44;;;;;;;;;;;;;;;;;;5016486;28;19967;-55
2024/03/13 09:46:13;;;;;;;;;;;;;;;;;;5018530;28;19909;-53
2024/03/13 09:48:39;;;;;;;;;;;;;;;;;;5020378;28;19925;-54
2024/03/13 09:51:05;;;;;;;;;;;;;;;;;;5025195;28;19913;-54
2024/03/13 09:53:31;;;;;;;;;;;;;;;;;;5013493;28;20419;-53
2024/03/13 09:55:57;;;;;;;;;;;;;;;;;;5022200;28;20353;-53
2024/03/13 09:58:23;;;;;;;;;;;;;;;;;;5013653;28;20015;-55
2024/03/13 10:00:52;;;;;;;;;;;;;;;;;;5023166;28;19956;-54
2024/03/13 10:03:18;;;;;;;;;;;;;;;;;;5016932;28;19975;-54
2024/03/13 10:05:44;;;;;;;;;;;;;;;;;;5022027;28;19917;-54
2024/03/13 10:08:09;;;;;;;;;;;;;;;;;;5014142;28;19971;-58
2024/03/13 10:10:36;;;;;;;;;;;;;;;;;;5017355;28;20010;-59
2024/03/13 10:13:02;;;;;;;;;;;;;;;;;;5021905;28;20346;-59
2024/03/13 10:15:28;;;;;;;;;;;;;;;;;;5020752;28;19979;-59
2024/03/13 10:17:54;;;;;;;;;;;;;;;;;;5019027;28;19956;-59
2024/03/13 10:20:20;;;;;;;;;;;;;;;;;;5021303;28;20349;-59
2024/03/13 10:22:46;;;;;;;;;;;;;;;;;;5014514;28;19909;-59
2024/03/13 10:25:13;;;;;;;;;;;;;;;;;;5012391;28;19929;-59
2024/03/13 10:27:39;;;;;;;;;;;;;;;;;;5019317;28;19914;-59
2024/03/13 10:30:05;;;;;;;;;;;;;;;;;;5030425;28;20013;-59
2024/03/13 10:32:31;;;;;;;;;;;;;;;;;;5021690;28;19959;-59
2024/03/13 10:34:57;;;;;;;;;;;;;;;;;;5015722;28;20460;-59
2024/03/13 10:37:22;;;;;;;;;;;;;;;;;;5018225;28;20388;-59
2024/03/13 10:39:48;;;;;;;;;;;;;;;;;;5012779;28;20318;-56
2024/03/13 10:42:14;;;;;;;;;;;;;;;;;;5015338;28;20339;-59
2024/03/13 10:44:40;;;;;;;;;;;;;;;;;;5016807;28;19913;-59
2024/03/13 10:47:06;;;;;;;;;;;;;;;;;;5023146;28;20084;-59
2024/03/13 10:49:33;;;;;;;;;;;;;;;;;;5021156;28;20071;-59
2024/03/13 10:52:01;;;;;;;;;;;;;;;;;;5015414;28;19913;-59
2024/03/13 10:54:27;;;;;;;;;;;;;;;;;;5013005;28;19928;-59
2024/03/13 10:56:53;;;;;;;;;;;;;;;;;;5016788;28;19956;-59
2024/03/13 10:59:19;;;;;;;;;;;;;;;;;;5012551;28;20395;-56
2024/03/13 11:01:49;;;;;;;;;;;;;;;;;;5018674;28;20354;-59
2024/03/13 11:04:15;;;;;;;;;;;;;;;;;;5018185;28;19912;-58
2024/03/13 11:06:41;;;;;;;;;;;;;;;;;;5015823;28;19913;-59
2024/03/13 11:09:12;;;;;;;;;;;;;;;;;;5020486;28;20349;-58
2024/03/13 11:11:38;;;;;;;;;;;;;;;;;;5021224;28;19913;-59
2024/03/13 11:14:04;;;;;;;;;;;;;;;;;;5014557;28;20329;-59
2024/03/13 11:16:30;;;;;;;;;;;;;;;;;;5018896;28;19937;-59
2024/03/13 11:18:55;;;;;;;;;;;;;;;;;;5017093;28;20324;-54
2024/03/13 11:21:22;;;;;;;;;;;;;;;;;;5012671;28;20410;-54
2024/03/13 11:23:48;;;;;;;;;;;;;;;;;;5021503;28;20229;-54
2024/03/13 11:26:14;;;;;;;;;;;;;;;;;;5020799;28;19962;-55
2024/03/13 11:28:40;;;;;;;;;;;;;;;;;;5016464;28;19916;-54
2024/03/13 11:31:06;;;;;;;;;;;;;;;;;;5020067;28;20075;-54
2024/03/13 11:33:32;;;;;;;;;;;;;;;;;;5018993;28;19971;-54
2024/03/13 11:35:58;;;;;;;;;;;;;;;;;;5021735;28;20344;-55
2024/03/13 11:38:24;;;;;;;;;;;;;;;;;;5020234;28;19956;-54
2024/03/13 11:40:50;;;;;;;;;;;;;;;;;;5010611;28;19917;-55
2024/03/13 11:43:16;;;;;;;;;;;;;;;;;;5016479;28;19910;-54
2024/03/13 11:45:43;;;;;;;;;;;;;;;;;;5021946;28;19995;-54
2024/03/13 11:48:09;;;;;;;;;;;;;;;;;;5016401;28;19913;-56
2024/03/13 11:50:35;;;;;;;;;;;;;;;;;;5009969;28;19924;-55
2024/03/13 11:53:02;;;;;;;;;;;;;;;;;;5013337;28;20365;-55
2024/03/13 11:55:28;;;;;;;;;;;;;;;;;;5017126;28;19965;-54
2024/03/13 11:57:53;;;;;;;;;;;;;;;;;;5015744;28;20418;-55
2024/03/13 12:00:20;;;;;;;;;;;;;;;;;;5021254;28;20030;-56
2024/03/13 12:02:46;;;;;;;;;;;;;;;;;;5019716;28;19909;-54
2024/03/13 12:05:12;;;;;;;;;;;;;;;;;;5017519;28;19915;-54
2024/03/13 12:07:42;;;;;;;;;;;;;;;;;;5021735;28;19959;-55
2024/03/13 12:10:09;;;;;;;;;;;;;;;;;;5019551;28;19912;-55
2024/03/13 12:12:35;;;;;;;;;;;;;;;;;;5016681;28;20420;-56
2024/03/13 12:15:01;;;;;;;;;;;;;;;;;;5018959;28;19971;-55
2024/03/13 12:17:27;;;;;;;;;;;;;;;;;;5019477;28;19952;-56
2024/03/13 12:19:53;;;;;;;;;;;;;;;;;;5016936;28;19952;-55
2024/03/13 12:22:20;;;;;;;;;;;;;;;;;;5023903;28;19927;-55
2024/03/13 12:24:46;;;;;;;;;;;;;;;;;;5023222;28;19913;-56
2024/03/13 12:27:13;;;;;;;;;;;;;;;;;;5015811;28;19909;-59
2024/03/13 12:29:40;;;;;;;;;;;;;;;;;;5018503;28;20274;-59
2024/03/13 12:32:06;;;;;;;;;;;;;;;;;;5016780;28;20016;-59
2024/03/13 12:34:32;;;;;;;;;;;;;;;;;;5017403;28;20062;-59
2024/03/13 12:36:58;;;;;;;;;;;;;;;;;;5021601;28;20368;-59
2024/03/13 12:39:24;;;;;;;;;;;;;;;;;;5024589;28;19936;-58
2024/03/13 12:41:51;;;;;;;;;;;;;;;;;;5018430;28;20027;-59
2024/03/13 12:44:18;;;;;;;;;;;;;;;;;;5014731;28;20614;-58
2024/03/13 12:46:44;;;;;;;;;;;;;;;;;;5016312;28;20292;-59
2024/03/13 12:49:12;;;;;;;;;;;;;;;;;;5021479;28;19909;-60
2024/03/13 12:51:38;;;;;;;;;;;;;;;;;;5016890;28;19909;-60
2024/03/13 12:54:07;;;;;;;;;;;;;;;;;;5016480;28;19913;-58
2024/03/13 12:56:33;;;;;;;;;;;;;;;;;;5016398;28;19945;-59
2024/03/13 12:58:59;;;;;;;;;;;;;;;;;;5020522;28;20480;-59
2024/03/13 13:01:26;;;;;;;;;;;;;;;;;;5025742;28;19916;-59
2024/03/13 13:03:52;;;;;;;;;;;;;;;;;;5021916;28;19919;-60
2024/03/13 13:06:18;;;;;;;;;;;;;;;;;;5029349;28;19917;-59
2024/03/13 13:08:44;;;;;;;;;;;;;;;;;;5026993;28;19948;-59
2024/03/13 13:11:09;;;;;;;;;;;;;;;;;;5019766;28;19908;-59
2024/03/13 13:13:35;;;;;;;;;;;;;;;;;;5014713;28;19909;-58
2024/03/13 13:16:05;;;;;;;;;;;;;;;;;;5024492;28;20361;-59
2024/03/13 13:18:31;;;;;;;;;;;;;;;;;;5016553;28;20019;-59
2024/03/13 13:20:58;;;;;;;;;;;;;;;;;;5024586;28;20048;-59
2024/03/13 13:23:24;;;;;;;;;;;;;;;;;;5019286;28;20335;-59
2024/03/13 13:25:50;;;;;;;;;;;;;;;;;;5017628;28;19909;-59
2024/03/13 13:28:17;;;;;;;;;;;;;;;;;;5019110;28;21101;-58
2024/03/13 13:30:45;;;;;;;;;;;;;;;;;;5017380;28;19913;-58
2024/03/13 13:33:11;;;;;;;;;;;;;;;;;;5022193;28;20316;-59
2024/03/13 13:35:37;;;;;;;;;;;;;;;;;;5020136;28;19917;-59
2024/03/13 13:38:02;;;;;;;;;;;;;;;;;;5024558;28;19947;-59
2024/03/13 13:40:28;;;;;;;;;;;;;;;;;;5022070;28;20309;-59
2024/03/13 13:42:54;;;;;;;;;;;;;;;;;;5017698;28;19928;-59
2024/03/13 13:45:23;;;;;;;;;;;;;;;;;;5017202;28;19917;-59
2024/03/13 13:47:51;;;;;;;;;;;;;;;;;;5021966;28;20035;-59
2024/03/13 13:50:18;;;;;;;;;;;;;;;;;;5017050;28;19939;-59
2024/03/13 13:52:44;;;;;;;;;;;;;;;;;;5023156;28;20193;-59
2024/03/13 13:55:12;;;;;;;;;;;;;;;;;;5013552;28;20055;-58
2024/03/13 13:57:38;;;;;;;;;;;;;;;;;;5015436;28;19913;-59
2024/03/13 14:00:11;;;;;;;;;;;;;;;;;;5019267;28;19944;-59
2024/03/13 14:02:37;;;;;;;;;;;;;;;;;;5016354;28;19913;-56
2024/03/13 14:05:06;;;;;;;;;;;;;;;;;;5022141;28;20376;-58
2024/03/13 14:07:34;;;;;;;;;;;;;;;;;;5020391;28;20590;-58
2024/03/13 14:10:00;;;;;;;;;;;;;;;;;;5013853;28;19928;-58
2024/03/13 14:12:32;;;;;;;;;;;;;;;;;;5016905;28;20462;-59
2024/03/13 14:14:58;;;;;;;;;;;;;;;;;;5017887;28;19924;-59
2024/03/13 14:17:27;;;;;;;;;;;;;;;;;;5020653;28;19960;-59
2024/03/13 14:19:53;;;;;;;;;;;;;;;;;;5014978;28;20276;-59
2024/03/13 14:22:20;;;;;;;;;;;;;;;;;;5018561;28;19956;-59
2024/03/13 14:24:46;;;;;;;;;;;;;;;;;;5019133;28;19953;-59
2024/03/13 14:27:12;;;;;;;;;;;;;;;;;;5016571;28;19965;-59
2024/03/13 14:29:38;;;;;;;;;;;;;;;;;;5019346;28;19920;-58
2024/03/13 14:32:08;;;;;;;;;;;;;;;;;;5018375;28;19928;-59
2024/03/13 14:34:34;;;;;;;;;;;;;;;;;;5014988;28;20397;-59
2024/03/13 14:37:00;;;;;;;;;;;;;;;;;;5018927;28;19952;-59
2024/03/13 14:39:31;;;;;;;;;;;;;;;;;;5014924;28;19992;-59
2024/03/13 14:41:57;;;;;;;;;;;;;;;;;;5013099;28;19924;-59
2024/03/13 14:44:23;;;;;;;;;;;;;;;;;;5016165;28;19975;-59
2024/03/13 14:46:49;;;;;;;;;;;;;;;;;;5017586;28;19956;-59
2024/03/13 14:49:18;;;;;;;;;;;;;;;;;;5017814;28;19917;-57
2024/03/13 14:51:44;;;;;;;;;;;;;;;;;;5014371;28;19920;-55
2024/03/13 14:54:10;;;;;;;;;;;;;;;;;;5017468;28;19961;-56
2024/03/13 14:56:36;;;;;;;;;;;;;;;;;;5014147;28;19936;-56
2024/03/13 14:59:02;;;;;;;;;;;;;;;;;;5012233;28;19964;-56
2024/03/13 15:01:28;;;;;;;;;;;;;;;;;;5032847;28;19948;-53
2024/03/13 15:03:57;;;;;;;;;;;;;;;;;;5012564;28;19971;-53
2024/03/13 15:06:23;;;;;;;;;;;;;;;;;;5013876;28;19913;-53
2024/03/13 15:08:49;;;;;;;;;;;;;;;;;;5014772;28;19996;-56
2024/03/13 15:11:15;;;;;;;;;;;;;;;;;;5016313;28;20000;-52
2024/03/13 15:13:46;;;;;;;;;;;;;;;;;;5018605;28;20007;-54
2024/03/13 15:16:12;;;;;;;;;;;;;;;;;;5010266;28;20022;-54
2024/03/13 15:18:38;;;;;;;;;;;;;;;;;;5013597;28;20768;-53
2024/03/13 15:21:04;;;;;;;;;;;;;;;;;;5012288;28;20011;-53
2024/03/13 15:23:30;;;;;;;;;;;;;;;;;;5016639;28;19963;-53
2024/03/13 15:25:57;;;;;;;;;;;;;;;;;;5012927;28;19948;-52
2024/03/13 15:28:23;;;;;;;;;;;;;;;;;;5020634;28;20442;-53
2024/03/13 15:30:49;;;;;;;;;;;;;;;;;;5020245;28;19948;-53
2024/03/13 15:33:15;;;;;;;;;;;;;;;;;;5012645;28;19963;-53
2024/03/13 15:35:43;;;;;;;;;;;;;;;;;;5018771;28;20442;-54
2024/03/13 15:38:09;;;;;;;;;;;;;;;;;;5013597;28;19989;-56
2024/03/13 15:40:35;;;;;;;;;;;;;;;;;;5013041;28;19917;-54
2024/03/13 15:43:07;;;;;;;;;;;;;;;;;;5015781;28;19956;-55
2024/03/13 15:45:33;;;;;;;;;;;;;;;;;;5016483;28;19913;-55
2024/03/13 15:48:00;;;;;;;;;;;;;;;;;;5018639;28;19955;-57
2024/03/13 15:50:26;;;;;;;;;;;;;;;;;;5012806;28;19913;-54
2024/03/13 15:52:52;;;;;;;;;;;;;;;;;;5011582;28;19916;-53
2024/03/13 15:55:17;;;;;;;;;;;;;;;;;;5011772;28;20288;-53
2024/03/13 15:57:43;;;;;;;;;;;;;;;;;;5015707;28;19953;-56
2024/03/13 16:00:12;;;;;;;;;;;;;;;;;;5016457;28;19956;-55
2024/03/13 16:02:38;;;;;;;;;;;;;;;;;;5013887;28;19913;-54
2024/03/13 16:05:06;;;;;;;;;;;;;;;;;;5020672;28;19976;-55
2024/03/13 16:07:33;;;;;;;;;;;;;;;;;;5025361;28;19963;-54
2024/03/13 16:09:59;;;;;;;;;;;;;;;;;;5020235;28;19935;-54
2024/03/13 16:12:25;;;;;;;;;;;;;;;;;;5014945;28;20389;-54
2024/03/13 16:14:51;;;;;;;;;;;;;;;;;;5018510;28;19956;-53
2024/03/13 16:17:16;;;;;;;;;;;;;;;;;;5016423;28;19923;-54
2024/03/13 16:19:42;;;;;;;;;;;;;;;;;;5018059;28;20468;-53
2024/03/13 16:22:09;;;;;;;;;;;;;;;;;;5017392;28;20369;-54
2024/03/13 16:24:35;;;;;;;;;;;;;;;;;;5008880;28;19923;-53
2024/03/13 16:27:01;;;;;;;;;;;;;;;;;;5017503;28;20281;-56
2024/03/13 16:29:29;;;;;;;;;;;;;;;;;;5009988;28;20396;-54
2024/03/13 16:31:55;;;;;;;;;;;;;;;;;;5012371;28;19913;-55
2024/03/13 16:34:20;;;;;;;;;;;;;;;;;;5013478;28;19959;-54
2024/03/13 16:36:47;;;;;;;;;;;;;;;;;;5018863;28;19913;-53
2024/03/13 16:39:16;;;;;;;;;;;;;;;;;;5023759;28;20481;-55
2024/03/13 16:41:42;;;;;;;;;;;;;;;;;;5017206;28;19908;-56
2024/03/13 16:44:08;;;;;;;;;;;;;;;;;;5015939;28;20406;-55
2024/03/13 16:46:34;;;;;;;;;;;;;;;;;;5015148;28;20043;-57
2024/03/13 16:49:02;;;;;;;;;;;;;;;;;;5011777;28;19956;-55
2024/03/13 16:51:28;;;;;;;;;;;;;;;;;;5013972;28;19976;-56
2024/03/13 16:53:54;;;;;;;;;;;;;;;;;;5012087;28;19976;-54
2024/03/13 16:56:20;;;;;;;;;;;;;;;;;;5024143;28;19913;-55
2024/03/13 16:58:46;;;;;;;;;;;;;;;;;;5018049;28;20285;-55